createdAt,value
2022-09-15T00:01:13.667Z,98466.22
2022-09-15T00:03:45.950Z,98464.97
2022-09-15T00:06:13.748Z,98476.69
2022-09-15T00:08:44.785Z,98471.22
2022-09-15T00:11:18.287Z,98475.81
2022-09-15T00:13:49.236Z,98459.59
2022-09-15T00:16:18.632Z,98461.97
2022-09-15T00:18:47.258Z,98453.28
2022-09-15T00:21:18.640Z,98465.97
2022-09-15T00:23:48.166Z,98431.84
2022-09-15T00:26:18.600Z,98479.03
2022-09-15T00:28:46.259Z,98470.13
2022-09-15T00:31:19.537Z,98440.94
2022-09-15T00:33:50.070Z,98439.66
2022-09-15T00:36:21.410Z,98439.66
2022-09-15T00:38:50.305Z,98472.25
2022-09-15T00:41:23.187Z,98437.03
2022-09-15T00:43:59.636Z,98445.78
2022-09-15T00:46:35.725Z,98424.13
2022-09-15T00:49:20.633Z,98457.41
2022-09-15T00:52:37.845Z,98463.00
2022-09-15T00:55:50.302Z,98466.31
2022-09-15T00:58:29.436Z,98466.44
2022-09-15T01:01:00.920Z,98442.47
2022-09-15T01:04:45.488Z,98456.63
2022-09-15T01:07:17.894Z,98445.78
2022-09-15T01:09:52.539Z,98431.09
2022-09-15T01:12:22.652Z,98430.00
2022-09-15T01:14:50.093Z,98449.41
2022-09-15T01:17:26.251Z,98460.50
2022-09-15T01:20:30.579Z,98457.19
2022-09-15T01:23:22.605Z,98460.50
2022-09-15T01:26:14.570Z,98454.28
2022-09-15T01:29:00.681Z,98450.81
2022-09-15T01:32:24.909Z,98452.50
2022-09-15T01:35:13.145Z,98457.06
2022-09-15T01:37:47.058Z,98435.84
2022-09-15T01:40:16.166Z,98419.50
2022-09-15T01:42:45.936Z,98430.28
2022-09-15T01:45:25.230Z,98453.19
2022-09-15T01:47:55.010Z,98441.38
2022-09-15T01:50:48.725Z,98447.50
2022-09-15T01:53:24.527Z,98427.72
2022-09-15T01:56:05.445Z,98438.50
2022-09-15T01:58:34.083Z,98450.03
2022-09-15T02:01:18.830Z,98421.97
2022-09-15T02:05:15.812Z,98456.22
2022-09-15T02:07:47.702Z,98455.38
2022-09-15T02:10:38.876Z,98432.38
2022-09-15T02:13:23.296Z,98455.13
2022-09-15T02:15:54.165Z,98427.94
2022-09-15T02:18:33.030Z,98442.19
2022-09-15T02:21:10.334Z,98455.53
2022-09-15T02:23:51.240Z,98423.50
2022-09-15T02:26:24.944Z,98436.38
2022-09-15T02:28:54.490Z,98468.53
2022-09-15T02:31:24.750Z,98417.28
2022-09-15T02:34:00.311Z,98444.03
2022-09-15T02:36:29.658Z,98436.97
2022-09-15T02:39:08.458Z,98449.84
2022-09-15T02:42:29.914Z,98453.44
2022-09-15T02:45:11.758Z,98444.44
2022-09-15T02:47:54.297Z,98427.78
2022-09-15T02:50:32.068Z,98459.81
2022-09-15T02:57:10.553Z,98433.06
2022-09-15T02:59:56.341Z,98467.69
2022-09-15T03:06:52.257Z,98435.84
2022-09-15T03:09:28.139Z,98449.28
2022-09-15T03:13:20.765Z,98456.06
2022-09-15T03:15:52.223Z,98463.41
2022-09-15T03:18:22.767Z,98460.63
2022-09-15T03:21:05.640Z,98439.72
2022-09-15T03:24:28.819Z,98451.50
2022-09-15T03:27:14.441Z,98427.41
2022-09-15T03:29:48.647Z,98421.31
2022-09-15T03:35:52.428Z,98419.38
2022-09-15T03:38:27.423Z,98408.44
2022-09-15T03:41:04.460Z,98454.84
2022-09-15T03:43:33.845Z,98453.19
2022-09-15T03:46:01.845Z,98442.09
2022-09-15T03:48:32.420Z,98434.09
2022-09-15T03:51:00.173Z,98454.53
2022-09-15T03:53:33.016Z,98448.06
2022-09-15T03:56:17.930Z,98452.09
2022-09-15T03:58:45.464Z,98429.25
2022-09-15T04:01:15.494Z,98459.03
2022-09-15T04:03:48.863Z,98425.34
2022-09-15T04:06:20.303Z,98465.50
2022-09-15T04:08:50.450Z,98454.97
2022-09-15T04:11:22.879Z,98430.59
2022-09-15T04:13:50.864Z,98453.56
2022-09-15T04:16:20.431Z,98416.38
2022-09-15T04:18:47.968Z,98463.22
2022-09-15T04:21:21.419Z,98441.81
2022-09-15T04:23:54.600Z,98425.88
2022-09-15T04:26:34.387Z,98425.44
2022-09-15T04:29:14.495Z,98444.03
2022-09-15T04:32:01.260Z,98457.16
2022-09-15T04:34:40.582Z,98455.06
2022-09-15T04:37:13.970Z,98452.69
2022-09-15T04:39:44.990Z,98470.25
2022-09-15T04:42:40.309Z,98464.34
2022-09-15T04:45:08.698Z,98458.91
2022-09-15T04:47:36.046Z,98448.88
2022-09-15T04:50:16.516Z,98469.16
2022-09-15T04:52:48.539Z,98440.84
2022-09-15T04:55:17.072Z,98455.59
2022-09-15T04:57:44.258Z,98444.47
2022-09-15T05:00:13.669Z,98449.72
2022-09-15T05:03:05.435Z,98429.03
2022-09-15T05:05:44.711Z,98461.56
2022-09-15T05:08:12.827Z,98468.09
2022-09-15T05:10:40.470Z,98464.69
2022-09-15T05:13:11.318Z,98465.34
2022-09-15T05:15:40.280Z,98440.22
2022-09-15T05:18:15.022Z,98468.25
2022-09-15T05:20:42.742Z,98482.63
2022-09-15T05:23:12.068Z,98447.75
2022-09-15T05:25:40.683Z,98448.50
2022-09-15T05:28:10.934Z,98479.88
2022-09-15T05:30:44.209Z,98449.78
2022-09-15T05:33:13.073Z,98440.22
2022-09-15T05:35:50.265Z,98470.78
2022-09-15T05:38:18.077Z,98441.91
2022-09-15T05:41:08.918Z,98437.06
2022-09-15T05:43:43.804Z,98445.78
2022-09-15T05:46:40.699Z,98462.66
2022-09-15T05:49:29.484Z,98483.59
2022-09-15T05:52:16.417Z,98458.19
2022-09-15T05:58:29.196Z,98464.97
2022-09-15T06:01:11.964Z,98466.50
2022-09-15T06:03:46.411Z,98489.69
2022-09-15T06:06:35.929Z,98492.31
2022-09-15T06:09:47.819Z,98455.19
2022-09-15T06:12:36.472Z,98496.13
2022-09-15T06:15:14.964Z,98448.72
2022-09-15T06:44:05.191Z,98487.88
2022-09-15T06:49:57.618Z,98485.38
2022-09-15T06:53:17.671Z,98510.25
2022-09-15T06:56:07.531Z,98482.84
2022-09-15T06:58:41.828Z,98493.69
2022-09-15T07:01:34.124Z,98500.31
2022-09-15T07:04:20.412Z,98513.53
2022-09-15T07:07:09.625Z,98514.19
2022-09-15T07:09:53.450Z,98510.03
2022-09-15T07:13:05.312Z,98524.19
2022-09-15T07:15:41.005Z,98487.53
2022-09-15T07:18:29.135Z,98521.66
2022-09-15T07:21:19.015Z,98489.34
2022-09-15T07:23:56.529Z,98506.16
2022-09-15T07:27:04.512Z,98538.44
2022-09-15T07:30:14.862Z,98516.38
2022-09-15T07:33:29.962Z,98522.81
2022-09-15T07:36:34.674Z,98487.59
2022-09-15T07:39:32.534Z,98530.16
2022-09-15T07:42:46.772Z,98493.91
2022-09-15T07:47:07.707Z,98537.59
2022-09-15T07:49:47.122Z,98517.50
2022-09-15T07:52:43.387Z,98507.50
2022-09-15T07:56:09.111Z,98503.47
2022-09-15T07:59:05.278Z,98510.13
2022-09-15T08:01:50.522Z,98517.38
2022-09-15T08:08:10.834Z,98508.25
2022-09-15T08:11:37.337Z,98499.81
2022-09-15T08:17:51.609Z,98520.44
2022-09-15T08:20:42.940Z,98537.09
2022-09-15T08:23:31.692Z,98516.00
2022-09-15T08:27:22.491Z,98521.00
2022-09-15T08:29:43.300Z,98535.16
2022-09-15T08:32:45.141Z,98532.53
2022-09-15T08:38:23.087Z,98528.22
2022-09-15T08:41:07.892Z,98511.72
2022-09-15T08:44:15.183Z,98521.41
2022-09-15T08:47:27.764Z,98533.22
2022-09-15T08:50:44.251Z,98522.97
2022-09-15T08:57:53.012Z,98545.69
2022-09-15T09:00:35.829Z,98512.72
2022-09-15T09:04:00.497Z,98512.16
2022-09-15T09:07:03.749Z,98548.47
2022-09-15T09:10:03.947Z,98550.16
2022-09-15T09:13:52.204Z,98546.25
2022-09-15T09:18:03.231Z,98558.31
2022-09-15T09:20:35.373Z,98554.69
2022-09-15T09:23:23.772Z,98530.97
2022-09-15T09:25:55.573Z,98550.97
2022-09-15T09:28:37.573Z,98569.41
2022-09-15T09:31:48.567Z,98528.78
2022-09-15T09:34:56.302Z,98580.34
2022-09-15T09:37:53.325Z,98540.16
2022-09-15T09:41:02.080Z,98564.00
2022-09-15T09:43:42.552Z,98560.81
2022-09-15T09:46:48.910Z,98545.41
2022-09-15T09:49:24.257Z,98574.41
2022-09-15T09:52:05.217Z,98569.53
2022-09-15T09:54:38.122Z,98554.41
2022-09-15T09:57:35.771Z,98571.97
2022-09-15T10:00:35.907Z,98581.69
2022-09-15T10:03:34.897Z,98558.81
2022-09-15T10:06:08.815Z,98572.84
2022-09-15T10:08:59.744Z,98568.09
2022-09-15T10:11:48.011Z,98576.91
2022-09-15T10:14:26.910Z,98578.25
2022-09-15T10:17:14.314Z,98548.38
2022-09-15T10:20:17.764Z,98558.91
2022-09-15T10:23:28.125Z,98602.44
2022-09-15T10:26:24.660Z,98558.91
2022-09-15T10:29:12.219Z,98585.88
2022-09-15T10:32:35.277Z,98557.03
2022-09-15T10:35:23.072Z,98567.81
2022-09-15T10:38:26.818Z,98579.81
2022-09-15T10:41:26.396Z,98586.13
2022-09-15T10:44:20.684Z,98603.03
2022-09-15T10:47:18.284Z,98594.72
2022-09-15T10:50:19.221Z,98604.16
2022-09-15T10:53:11.093Z,98588.34
2022-09-15T10:56:33.811Z,98596.06
2022-09-15T10:59:15.587Z,98599.38
2022-09-15T11:02:03.205Z,98578.06
2022-09-15T11:04:49.562Z,98605.81
2022-09-15T11:07:59.156Z,98615.66
2022-09-15T11:11:27.571Z,98576.72
2022-09-15T11:14:23.685Z,98615.94
2022-09-15T11:17:31.689Z,98611.13
2022-09-15T11:20:58.840Z,98618.88
2022-09-15T11:23:48.638Z,98590.63
2022-09-15T11:26:33.739Z,98615.31
2022-09-15T11:30:18.162Z,98609.63
2022-09-15T11:33:10.325Z,98651.38
2022-09-15T11:36:15.717Z,98633.06
2022-09-15T11:39:13.724Z,98617.06
2022-09-15T11:42:09.186Z,98626.59
2022-09-15T11:44:50.819Z,98623.72
2022-09-15T11:47:50.424Z,98637.19
2022-09-15T11:50:33.705Z,98615.69
2022-09-15T11:54:40.124Z,98643.47
2022-09-15T11:57:00.133Z,98631.69
2022-09-15T12:00:00.683Z,98615.28
2022-09-15T12:02:51.463Z,98619.47
2022-09-15T12:05:44.624Z,98622.38
2022-09-15T12:08:26.075Z,98639.47
2022-09-15T12:11:02.701Z,98603.91
2022-09-15T12:14:01.538Z,98616.00
2022-09-15T12:17:27.097Z,98598.66
2022-09-15T12:20:21.914Z,98630.59
2022-09-15T12:23:35.213Z,98635.56
2022-09-15T12:26:20.467Z,98638.88
2022-09-15T12:28:59.997Z,98645.81
2022-09-15T12:31:37.119Z,98600.88
2022-09-15T12:36:16.129Z,98633.84
2022-09-15T12:37:46.336Z,98634.38
2022-09-15T12:40:28.054Z,98608.34
2022-09-15T12:43:01.542Z,98619.28
2022-09-15T12:45:44.256Z,98634.66
2022-09-15T12:48:27.386Z,98611.66
2022-09-15T12:51:08.696Z,98637.59
2022-09-15T12:54:04.996Z,98629.41
2022-09-15T12:56:37.071Z,98605.59
2022-09-15T12:59:15.494Z,98613.09
2022-09-15T13:01:59.115Z,98590.03
2022-09-15T13:04:59.143Z,98603.34
2022-09-15T13:07:39.566Z,98618.84
2022-09-15T13:10:41.483Z,98633.22
2022-09-15T13:13:56.531Z,98639.63
2022-09-15T13:16:37.539Z,98631.66
2022-09-15T13:19:26.545Z,98647.22
2022-09-15T13:22:27.732Z,98601.00
2022-09-15T13:25:15.856Z,98636.25
2022-09-15T13:27:55.371Z,98642.72
2022-09-15T13:31:37.374Z,98639.28
2022-09-15T13:40:40.759Z,98654.38
2022-09-15T13:43:41.193Z,98667.19
2022-09-15T13:46:42.103Z,98643.06
2022-09-15T13:49:33.317Z,98666.38
2022-09-15T13:52:16.736Z,98660.28
2022-09-15T13:55:29.178Z,98670.97
2022-09-15T14:01:06.817Z,98665.53
2022-09-15T14:04:00.066Z,98668.72
2022-09-15T14:06:39.372Z,98640.28
2022-09-15T14:09:24.355Z,98672.47
2022-09-15T14:12:24.241Z,98640.41
2022-09-15T14:15:01.518Z,98641.94
2022-09-15T14:17:44.050Z,98693.59
2022-09-15T14:20:35.225Z,98676.78
2022-09-15T14:23:21.236Z,98658.34
2022-09-15T14:25:49.828Z,98665.53
2022-09-15T14:28:31.801Z,98685.25
2022-09-15T14:31:54.017Z,98686.94
2022-09-15T14:34:08.729Z,98656.66
2022-09-15T14:37:04.985Z,98648.31
2022-09-15T14:39:53.464Z,98679.28
2022-09-15T14:42:33.629Z,98680.38
2022-09-15T14:48:30.954Z,98690.25
2022-09-15T14:51:47.309Z,98669.28
2022-09-15T14:54:33.422Z,98658.59
2022-09-15T14:57:09.517Z,98657.38
2022-09-15T14:59:52.859Z,98681.09
2022-09-15T15:02:41.781Z,98681.91
2022-09-15T15:05:20.695Z,98691.22
2022-09-15T15:07:49.769Z,98701.47
2022-09-15T15:10:26.702Z,98698.00
2022-09-15T15:17:12.294Z,98684.25
2022-09-15T15:19:44.462Z,98666.22
2022-09-15T15:26:29.794Z,98687.88
2022-09-15T15:28:57.389Z,98690.09
2022-09-15T15:31:30.207Z,98663.72
2022-09-15T15:34:00.500Z,98672.47
2022-09-15T15:36:29.512Z,98669.41
2022-09-15T15:39:04.768Z,98679.69
2022-09-15T15:41:42.234Z,98678.59
2022-09-15T15:44:17.964Z,98702.19
2022-09-15T15:47:02.641Z,98695.66
2022-09-15T15:49:32.867Z,98709.38
2022-09-15T15:52:04.020Z,98674.28
2022-09-15T15:54:33.856Z,98689.66
2022-09-15T15:57:26.444Z,98678.97
2022-09-15T15:59:59.374Z,98682.69
2022-09-15T16:02:27.837Z,98662.38
2022-09-15T16:04:57.724Z,98684.28
2022-09-15T16:07:31.141Z,98659.56
2022-09-15T16:10:01.283Z,98679.88
2022-09-15T16:12:32.002Z,98666.34
2022-09-15T16:15:02.313Z,98673.41
2022-09-15T16:17:29.601Z,98688.84
2022-09-15T16:19:57.042Z,98672.13
2022-09-15T16:22:26.647Z,98682.00
2022-09-15T16:24:57.399Z,98686.38
2022-09-15T16:27:29.927Z,98668.34
2022-09-15T16:29:57.306Z,98653.47
2022-09-15T16:36:36.592Z,98659.34
2022-09-15T16:39:09.435Z,98682.84
2022-09-15T16:42:01.937Z,98694.44
2022-09-15T16:44:29.450Z,98693.41
2022-09-15T16:46:56.812Z,98711.38
2022-09-15T16:49:25.209Z,98674.91
2022-09-15T16:52:21.803Z,98682.13
2022-09-15T16:54:49.266Z,98679.31
2022-09-15T16:57:18.218Z,98690.78
2022-09-15T16:59:45.905Z,98688.88
2022-09-15T17:03:30.430Z,98703.66
2022-09-15T17:05:59.958Z,98688.88
2022-09-15T17:08:30.293Z,98709.19
2022-09-15T17:11:00.969Z,98696.78
2022-09-15T17:13:31.595Z,98679.41
2022-09-15T17:16:00.243Z,98698.56
2022-09-15T17:18:28.729Z,98721.13
2022-09-15T17:20:56.082Z,98708.13
2022-09-15T17:23:25.032Z,98716.97
2022-09-15T17:25:59.165Z,98696.06
2022-09-15T17:28:31.615Z,98724.69
2022-09-15T17:31:01.362Z,98681.25
2022-09-15T17:33:31.258Z,98712.50
2022-09-15T17:35:59.681Z,98707.03
2022-09-15T17:38:27.680Z,98693.69
2022-09-15T17:40:55.712Z,98720.78
2022-09-15T17:43:26.747Z,98697.06
2022-09-15T17:45:54.652Z,98702.66
2022-09-15T17:48:22.765Z,98708.31
2022-09-15T17:50:50.734Z,98691.34
2022-09-15T17:53:24.666Z,98686.16
2022-09-15T17:55:54.340Z,98697.22
2022-09-15T17:58:24.427Z,98689.34
2022-09-15T18:00:54.713Z,98711.41
2022-09-15T18:03:27.809Z,98673.88
2022-09-15T18:05:56.529Z,98678.53
2022-09-15T18:08:24.059Z,98690.94
2022-09-15T18:10:51.780Z,98702.72
2022-09-15T18:13:22.983Z,98701.06
2022-09-15T18:15:51.275Z,98671.19
2022-09-15T18:18:24.043Z,98667.59
2022-09-15T18:20:53.950Z,98684.31
2022-09-15T18:23:24.439Z,98711.38
2022-09-15T18:25:52.838Z,98695.06
2022-09-15T18:28:20.404Z,98685.25
2022-09-15T18:30:50.204Z,98701.09
2022-09-15T18:33:42.853Z,98705.88
2022-09-15T18:36:15.002Z,98688.03
2022-09-15T18:38:44.934Z,98680.78
2022-09-15T18:41:12.513Z,98696.03
2022-09-15T18:43:43.932Z,98676.03
2022-09-15T18:46:11.627Z,98702.50
2022-09-15T18:48:42.552Z,98698.69
2022-09-15T18:51:11.998Z,98661.00
2022-09-15T18:53:44.077Z,98700.47
2022-09-15T18:56:19.535Z,98664.59
2022-09-15T18:58:51.317Z,98663.66
2022-09-15T19:01:19.070Z,98664.97
2022-09-15T19:03:46.578Z,98661.75
2022-09-15T19:06:14.019Z,98660.66
2022-09-15T19:08:43.343Z,98662.22
2022-09-15T19:11:12.519Z,98653.63
2022-09-15T19:14:04.921Z,98696.09
2022-09-15T19:16:56.370Z,98710.16
2022-09-15T19:19:21.509Z,98690.75
2022-09-15T19:21:49.278Z,98674.84
2022-09-15T19:24:17.343Z,98679.63
2022-09-15T19:26:47.360Z,98683.56
2022-09-15T19:29:15.682Z,98689.03
2022-09-15T19:31:42.967Z,98673.53
2022-09-15T19:34:10.320Z,98677.50
2022-09-15T19:36:37.537Z,98680.72
2022-09-15T19:39:06.387Z,98687.25
2022-09-15T19:41:33.553Z,98704.94
2022-09-15T19:44:02.454Z,98681.78
2022-09-15T19:46:29.848Z,98670.31
2022-09-15T19:48:59.089Z,98673.31
2022-09-15T19:51:26.334Z,98672.97
2022-09-15T19:53:58.208Z,98676.66
2022-09-15T19:56:27.008Z,98674.59
2022-09-15T19:58:56.127Z,98657.91
2022-09-15T20:01:25.958Z,98682.00
2022-09-15T20:06:40.897Z,98685.09
2022-09-15T20:09:08.894Z,98677.00
2022-09-15T20:11:36.617Z,98665.53
2022-09-15T20:14:04.089Z,98679.84
2022-09-15T20:16:31.447Z,98669.38
2022-09-15T20:18:59.010Z,98675.81
2022-09-15T20:21:49.418Z,98667.47
2022-09-15T20:24:18.691Z,98683.94
2022-09-15T20:26:46.352Z,98654.31
2022-09-15T20:29:14.076Z,98679.16
2022-09-15T20:31:41.536Z,98665.31
2022-09-15T20:34:09.039Z,98681.41
2022-09-15T20:36:39.098Z,98651.34
2022-09-15T20:39:14.498Z,98682.75
2022-09-15T20:41:45.255Z,98683.31
2022-09-15T20:44:13.059Z,98686.66
2022-09-15T20:46:40.789Z,98646.56
2022-09-15T20:49:09.074Z,98662.09
2022-09-15T20:51:36.388Z,98662.69
2022-09-15T20:54:05.583Z,98677.22
2022-09-15T20:56:35.360Z,98668.16
2022-09-15T20:59:04.363Z,98679.16
2022-09-15T21:01:37.463Z,98660.81
2022-09-15T21:04:08.073Z,98676.41
2022-09-15T21:06:37.620Z,98644.53
2022-09-15T21:09:05.375Z,98678.41
2022-09-15T21:11:33.765Z,98683.03
2022-09-15T21:14:02.063Z,98643.09
2022-09-15T21:16:29.808Z,98685.22
2022-09-15T21:18:58.781Z,98665.38
2022-09-15T21:21:30.422Z,98658.13
2022-09-15T21:24:04.163Z,98691.19
2022-09-15T21:27:00.461Z,98658.75
2022-09-15T21:29:28.723Z,98641.19
2022-09-15T21:31:58.413Z,98658.28
2022-09-15T21:34:26.585Z,98639.41
2022-09-15T21:36:53.966Z,98661.00
2022-09-15T21:39:21.616Z,98649.25
2022-09-15T21:41:50.509Z,98640.63
2022-09-15T21:44:18.420Z,98640.13
2022-09-15T21:46:47.374Z,98623.78
2022-09-15T21:49:15.378Z,98658.13
2022-09-15T21:51:42.845Z,98651.69
2022-09-15T21:54:10.685Z,98656.97
2022-09-15T21:56:38.333Z,98621.88
2022-09-15T21:59:06.015Z,98672.31
2022-09-15T22:01:33.671Z,98632.13
2022-09-15T22:04:05.472Z,98635.22
2022-09-15T22:06:40.677Z,98656.44
2022-09-15T22:09:14.357Z,98651.81
2022-09-15T22:11:42.150Z,98641.22
2022-09-15T22:14:10.592Z,98620.34
2022-09-15T22:16:41.833Z,98649.91
2022-09-15T22:19:11.647Z,98643.34
2022-09-15T22:21:42.237Z,98627.94
2022-09-15T22:24:13.766Z,98661.00
2022-09-15T22:26:42.718Z,98636.22
2022-09-15T22:29:10.850Z,98636.44
2022-09-15T22:31:38.702Z,98605.34
2022-09-15T22:34:08.169Z,98602.09
2022-09-15T22:36:35.628Z,98598.53
2022-09-15T22:39:04.862Z,98632.59
2022-09-15T22:41:35.757Z,98635.13
2022-09-15T22:44:03.972Z,98628.19
2022-09-15T22:46:31.507Z,98623.94
2022-09-15T22:48:59.093Z,98630.69
2022-09-15T22:51:27.521Z,98641.22
2022-09-15T22:53:57.575Z,98643.94
2022-09-15T22:56:26.853Z,98638.78
2022-09-15T22:58:55.666Z,98640.81
2022-09-15T23:01:27.206Z,98625.81
2022-09-15T23:03:57.551Z,98644.28
2022-09-15T23:06:26.930Z,98616.50
2022-09-15T23:08:57.845Z,98621.63
2022-09-15T23:11:26.994Z,98639.50
2022-09-15T23:13:55.196Z,98634.25
2022-09-15T23:16:24.439Z,98611.00
2022-09-15T23:18:53.037Z,98638.31
2022-09-15T23:21:20.814Z,98623.03
2022-09-15T23:23:49.385Z,98625.75
2022-09-15T23:26:18.764Z,98643.28
2022-09-15T23:28:46.792Z,98637.09
2022-09-15T23:31:14.695Z,98637.22
2022-09-15T23:33:44.170Z,98630.09
2022-09-15T23:36:13.765Z,98657.13
2022-09-15T23:38:44.005Z,98641.63
2022-09-15T23:41:13.449Z,98626.13
2022-09-15T23:43:41.203Z,98614.91
2022-09-15T23:46:09.222Z,98621.56
2022-09-15T23:48:36.818Z,98620.50
2022-09-15T23:51:05.714Z,98621.25
2022-09-15T23:53:33.251Z,98606.78
2022-09-15T23:56:00.680Z,98599.06
2022-09-15T23:58:28.281Z,98618.72
